Time;durP1;ratioP1;P1;durP2;ratioP2;P2;SDS_P1;SDS_P2;PMS_P1;PMS_P2;Temp;Humidity;BMP_temperature;BMP_pressure;BME280_temperature;BME280_humidity;BME280_pressure;Samples;Min_cycle;Max_cycle;Signal;HPM_P1;HPM_P2
2021/03/04 00:01:22;;;;;;;27.33;16.20;;;15.50;58.10;;;;;;5055354;28;20484;-64
2021/03/04 00:03:48;;;;;;;24.40;15.63;;;15.50;58.20;;;;;;5055380;28;20044;-64
2021/03/04 00:06:13;;;;;;;28.23;16.52;;;15.50;58.20;;;;;;5055536;28;20106;-64
2021/03/04 00:08:39;;;;;;;23.92;15.10;;;15.50;58.20;;;;;;5055279;28;20104;-64
2021/03/04 00:11:05;;;;;;;24.88;15.75;;;15.50;58.20;;;;;;5055322;28;20072;-64
2021/03/04 00:13:30;;;;;;;26.45;15.40;;;15.50;58.10;;;;;;5056335;28;20037;-64
2021/03/04 00:15:56;;;;;;;29.17;17.00;;;15.50;58.20;;;;;;5055120;28;20048;-64
2021/03/04 00:18:21;;;;;;;23.73;14.88;;;15.30;58.10;;;;;;5054975;28;20021;-64
2021/03/04 00:20:49;;;;;;;25.30;15.75;;;15.40;58.10;;;;;;5054911;28;20100;-64
2021/03/04 00:23:14;;;;;;;25.70;16.38;;;15.40;58.10;;;;;;5055005;28;20017;-65
2021/03/04 00:25:40;;;;;;;26.73;15.80;;;15.40;58.10;;;;;;5054843;28;20494;-64
2021/03/04 00:28:05;;;;;;;24.58;14.88;;;15.40;58.20;;;;;;5055180;28;20025;-64
2021/03/04 00:30:31;;;;;;;24.83;14.75;;;15.40;58.10;;;;;;5054939;28;20029;-64
2021/03/04 00:32:57;;;;;;;24.02;15.45;;;15.40;58.20;;;;;;5055136;28;20021;-64
2021/03/04 00:35:23;;;;;;;22.35;15.00;;;15.30;58.20;;;;;;5054937;28;20777;-64
2021/03/04 00:37:49;;;;;;;24.90;14.90;;;15.20;78.40;;;;;;5036629;28;20036;-64
2021/03/04 00:40:19;;;;;;;22.30;13.88;;;15.40;58.30;;;;;;5054920;28;20482;-64
2021/03/04 00:42:45;;;;;;;24.33;15.10;;;15.40;58.30;;;;;;5054554;28;20031;-64
2021/03/04 00:45:14;;;;;;;22.02;14.07;;;15.40;78.60;;;;;;5054834;28;20096;-64
2021/03/04 00:47:40;;;;;;;22.00;13.60;;;15.30;58.30;;;;;;5054594;28;20394;-64
2021/03/04 00:50:07;;;;;;;23.05;14.48;;;15.30;58.30;;;;;;5054599;28;20287;-64
2021/03/04 00:52:33;;;;;;;22.80;14.38;;;15.30;58.30;;;;;;5054446;28;20027;-64
2021/03/04 00:54:58;;;;;;;20.58;12.75;;;15.30;58.40;;;;;;5053595;28;20510;-64
2021/03/04 00:57:24;;;;;;;22.67;14.15;;;15.30;58.40;;;;;;5054611;28;20029;-64
2021/03/04 00:59:50;;;;;;;24.73;13.98;;;15.60;58.60;;;;;;5054313;28;20047;-64
2021/03/04 01:02:16;;;;;;;23.25;13.70;;;13.40;77.70;;;;;;5054140;28;20423;-64
2021/03/04 01:04:41;;;;;;;23.55;13.93;;;15.30;58.40;;;;;;5054515;28;20446;-64
2021/03/04 01:07:07;;;;;;;21.38;12.75;;;15.30;58.40;;;;;;5054474;28;20013;-64
2021/03/04 01:09:33;;;;;;;20.65;13.45;;;15.10;58.30;;;;;;5053999;28;20033;-64
2021/03/04 01:11:58;;;;;;;20.73;13.85;;;15.20;78.90;;;;;;5053989;28;20399;-64
2021/03/04 01:14:24;;;;;;;22.67;13.70;;;15.20;58.40;;;;;;5055614;28;20195;-64
2021/03/04 01:16:50;;;;;;;22.88;14.00;;;15.20;58.40;;;;;;5053761;28;20029;-64
2021/03/04 01:19:15;;;;;;;20.20;12.95;;;15.30;78.70;;;;;;5053923;28;20033;-64
2021/03/04 01:21:41;;;;;;;20.83;13.55;;;15.10;58.40;;;;;;5053738;28;20025;-64
2021/03/04 01:24:07;;;;;;;19.83;12.88;;;15.20;58.50;;;;;;5053903;28;20487;-64
2021/03/04 01:26:33;;;;;;;19.52;11.90;;;15.20;58.40;;;;;;5053605;28;20025;-64
2021/03/04 01:28:59;;;;;;;18.88;12.35;;;15.10;79.60;;;;;;5053876;28;20028;-64
2021/03/04 01:31:24;;;;;;;19.55;12.10;;;15.20;58.50;;;;;;5053809;28;20033;-64
2021/03/04 01:33:50;;;;;;;18.48;11.90;;;15.10;58.40;;;;;;5035699;28;20025;-64
2021/03/04 01:36:16;;;;;;;19.92;11.90;;;15.10;58.40;;;;;;5053789;28;20021;-64
2021/03/04 01:38:41;;;;;;;21.52;12.93;;;15.70;58.80;;;;;;5053359;28;20388;-64
2021/03/04 01:41:07;;;;;;;19.77;12.13;;;14.90;58.40;;;;;;5053399;28;20045;-64
2021/03/04 01:43:32;;;;;;;21.60;13.38;;;15.10;58.50;;;;;;5053408;28;20021;-64
2021/03/04 01:45:58;;;;;;;19.13;12.32;;;15.10;58.50;;;;;;5053256;28;20031;-64
2021/03/04 01:48:24;;;;;;;20.70;12.75;;;15.10;58.60;;;;;;5053369;28;20029;-63
2021/03/04 01:50:51;;;;;;;17.33;11.77;;;15.20;78.70;;;;;;5053413;28;20033;-64
2021/03/04 01:53:17;;;;;;;18.10;12.55;;;15.00;79.00;;;;;;5053225;28;20022;-64
2021/03/04 01:55:43;;;;;;;17.38;12.10;;;15.00;58.60;;;;;;5053345;28;20379;-64
2021/03/04 01:58:09;;;;;;;19.58;12.07;;;15.00;58.60;;;;;;5052865;28;20549;-64
2021/03/04 02:00:35;;;;;;;19.33;11.68;;;15.10;59.10;;;;;;5053295;28;20435;-63
2021/03/04 02:03:01;;;;;;;17.88;11.55;;;15.00;58.40;;;;;;5053364;28;20490;-65
2021/03/04 02:05:26;;;;;;;19.80;12.05;;;15.00;58.50;;;;;;5053005;28;20025;-66
2021/03/04 02:08:29;;;;;;;17.92;11.38;;;15.00;58.50;;;;;;5052734;28;20502;-65
2021/03/04 02:11:00;;;;;;;17.88;11.70;;;15.00;58.50;;;;;;5052804;28;20033;-65
2021/03/04 02:13:50;;;;;;;17.70;11.85;;;15.20;58.60;;;;;;5054699;28;20087;-65
2021/03/04 02:16:22;;;;;;;16.90;11.15;;;15.00;58.50;;;;;;5052822;28;20437;-65
2021/03/04 02:18:56;;;;;;;17.17;11.07;;;15.00;58.60;;;;;;5052827;28;20017;-65
2021/03/04 02:21:46;;;;;;;17.83;11.73;;;15.00;58.60;;;;;;5052682;28;20090;-65
2021/03/04 02:24:21;;;;;;;18.08;11.95;;;15.00;58.60;;;;;;5052455;28;20045;-65
2021/03/04 02:27:01;;;;;;;18.08;11.93;;;14.90;79.60;;;;;;5052603;28;20033;-65
2021/03/04 02:29:27;;;;;;;17.52;11.80;;;14.90;58.60;;;;;;5052467;28;20395;-65
2021/03/04 02:31:56;;;;;;;18.88;11.80;;;14.90;58.60;;;;;;5052763;28;20083;-65
2021/03/04 02:34:24;;;;;;;17.33;10.93;;;14.90;58.60;;;;;;5052286;28;20021;-65
2021/03/04 02:36:51;;;;;;;16.75;11.10;;;14.90;58.60;;;;;;5052525;28;20029;-65
2021/03/04 02:39:18;;;;;;;15.18;10.40;;;14.80;58.50;;;;;;5052336;28;20556;-65
2021/03/04 02:41:45;;;;;;;17.23;11.52;;;14.90;58.60;;;;;;5052492;28;20025;-65
2021/03/04 02:44:11;;;;;;;17.67;11.13;;;14.90;58.60;;;;;;5052318;28;20025;-65
2021/03/04 02:46:38;;;;;;;17.00;10.93;;;14.90;58.60;;;;;;5052231;28;20098;-65
2021/03/04 02:49:06;;;;;;;16.52;10.63;;;14.90;58.60;;;;;;5052243;28;20521;-65
2021/03/04 02:51:34;;;;;;;17.80;11.13;;;14.90;58.60;;;;;;5052358;28;20029;-65
2021/03/04 02:54:01;;;;;;;21.50;11.55;;;14.80;58.60;;;;;;5052399;28;20104;-65
2021/03/04 02:56:29;;;;;;;17.15;11.13;;;14.90;58.70;;;;;;5052096;28;20049;-65
2021/03/04 02:58:58;;;;;;;16.90;11.30;;;14.80;58.60;;;;;;5052088;28;20021;-64
2021/03/04 03:01:27;;;;;;;18.90;11.50;;;14.90;58.70;;;;;;5052148;28;20033;-65
2021/03/04 03:03:54;;;;;;;16.17;10.40;;;14.80;58.60;;;;;;5051850;28;20017;-64
2021/03/04 03:06:21;;;;;;;16.30;10.63;;;14.80;58.60;;;;;;5052199;28;20090;-65
2021/03/04 03:08:48;;;;;;;17.83;10.82;;;14.80;58.70;;;;;;5052183;28;20040;-66
2021/03/04 03:11:15;;;;;;;16.45;10.40;;;14.80;58.60;;;;;;5051883;28;20171;-65
2021/03/04 03:13:42;;;;;;;17.13;11.00;;;14.80;58.60;;;;;;5052634;28;20115;-65
2021/03/04 03:16:08;;;;;;;17.45;11.13;;;14.80;58.60;;;;;;5051973;28;20104;-65
2021/03/04 03:18:33;;;;;;;17.83;11.07;;;14.80;58.70;;;;;;5051479;28;20156;-65
2021/03/04 03:20:59;;;;;;;17.90;10.82;;;14.90;80.00;;;;;;5051913;28;20037;-65
2021/03/04 03:23:25;;;;;;;18.27;11.40;;;14.80;58.60;;;;;;5051986;28;20024;-65
2021/03/04 03:25:50;;;;;;;16.48;10.95;;;14.80;58.60;;;;;;5052101;28;20048;-65
2021/03/04 03:28:16;;;;;;;18.23;11.70;;;14.80;58.70;;;;;;5051846;28;20025;-65
2021/03/04 03:30:41;;;;;;;18.88;10.93;;;14.80;58.70;;;;;;5051768;28;20047;-65
2021/03/04 03:33:11;;;;;;;17.30;10.32;;;14.70;58.60;;;;;;5052079;28;20463;-64
2021/03/04 03:35:38;;;;;;;18.17;10.90;;;14.70;78.80;;;;;;5051644;28;20037;-65
2021/03/04 03:38:05;;;;;;;16.40;10.70;;;14.70;58.60;;;;;;5051642;28;20060;-65
2021/03/04 03:40:33;;;;;;;16.83;10.57;;;14.70;58.60;;;;;;5051686;28;20045;-65
2021/03/04 03:43:00;;;;;;;15.75;10.65;;;14.70;58.60;;;;;;5051606;28;20029;-65
2021/03/04 03:45:39;;;;;;;16.52;9.65;;;14.70;58.60;;;;;;5051688;28;20637;-65
2021/03/04 03:48:09;;;;;;;17.52;10.65;;;14.70;58.60;;;;;;5051485;28;20499;-65
2021/03/04 03:50:35;;;;;;;18.50;11.23;;;14.70;58.60;;;;;;5033603;28;20056;-65
2021/03/04 03:53:01;;;;;;;18.10;11.02;;;14.70;58.60;;;;;;5051461;28;20048;-66
2021/03/04 03:55:28;;;;;;;17.90;10.75;;;14.40;58.50;;;;;;5051527;28;20033;-65
2021/03/04 03:57:54;;;;;;;17.40;11.27;;;14.70;58.60;;;;;;5051606;28;20434;-65
2021/03/04 04:00:26;;;;;;;19.45;11.18;;;14.70;58.60;;;;;;5051515;28;20020;-65
2021/03/04 04:02:56;;;;;;;17.42;10.25;;;14.70;59.30;;;;;;5051360;28;20029;-65
2021/03/04 04:05:22;;;;;;;16.80;10.75;;;14.60;78.90;;;;;;5051420;28;20043;-65
2021/03/04 04:07:49;;;;;;;16.42;10.13;;;15.00;58.80;;;;;;5051348;28;20452;-65
2021/03/04 04:10:15;;;;;;;16.02;9.90;;;14.60;58.60;;;;;;5051412;28;20056;-65
2021/03/04 04:12:41;;;;;;;16.88;10.48;;;14.60;58.60;;;;;;5051221;28;20075;-65
2021/03/04 04:15:07;;;;;;;15.13;10.00;;;14.60;58.60;;;;;;5052485;28;20037;-65
2021/03/04 04:17:34;;;;;;;15.30;9.80;;;14.60;58.60;;;;;;5051449;28;20043;-65
2021/03/04 04:20:03;;;;;;;17.50;10.50;;;14.80;79.20;;;;;;5051563;28;20379;-65
2021/03/04 04:22:29;;;;;;;14.85;10.30;;;14.60;58.60;;;;;;5051226;28;20020;-64
2021/03/04 04:24:57;;;;;;;18.27;11.38;;;14.40;58.50;;;;;;5051255;28;20332;-65
2021/03/04 04:27:23;;;;;;;17.65;10.60;;;14.60;58.60;;;;;;5051187;28;20408;-65
2021/03/04 04:29:48;;;;;;;15.57;9.57;;;14.60;58.60;;;;;;5052834;28;20148;-64
2021/03/04 04:32:14;;;;;;;18.20;11.20;;;14.40;58.50;;;;;;5054830;28;20475;-65
2021/03/04 04:34:39;;;;;;;17.92;11.07;;;14.60;58.60;;;;;;5054858;28;20040;-65
2021/03/04 04:37:05;;;;;;;17.30;10.27;;;14.60;58.70;;;;;;5054736;28;20036;-65
2021/03/04 04:39:30;;;;;;;15.20;9.95;;;14.60;58.70;;;;;;5054704;28;20025;-64
2021/03/04 04:41:56;;;;;;;16.35;10.27;;;14.50;58.60;;;;;;5054564;28;20021;-65
2021/03/04 04:44:22;;;;;;;19.65;11.50;;;14.50;58.70;;;;;;5036682;28;20023;-64
2021/03/04 04:46:47;;;;;;;17.55;10.88;;;14.50;58.70;;;;;;5054625;28;20052;-65
2021/03/04 04:49:13;;;;;;;16.15;10.45;;;14.50;58.70;;;;;;5054525;28;20036;-65
2021/03/04 04:51:38;;;;;;;15.48;10.20;;;14.50;58.70;;;;;;5054441;28;20048;-65
2021/03/04 04:54:04;;;;;;;15.60;10.20;;;14.50;58.70;;;;;;5054402;28;20028;-64
2021/03/04 04:56:30;;;;;;;17.70;10.57;;;14.50;58.70;;;;;;5054471;28;20044;-65
2021/03/04 04:58:55;;;;;;;19.00;10.90;;;14.50;58.80;;;;;;5054452;28;20027;-64
2021/03/04 05:01:21;;;;;;;19.75;11.02;;;14.50;58.70;;;;;;5054235;28;20032;-64
2021/03/04 05:03:46;;;;;;;17.55;10.20;;;14.50;79.00;;;;;;5054127;28;20052;-64
2021/03/04 05:06:12;;;;;;;18.52;11.32;;;14.50;58.80;;;;;;5054263;28;20033;-64
2021/03/04 05:08:38;;;;;;;16.73;10.48;;;14.50;58.70;;;;;;5054205;28;20017;-64
2021/03/04 05:11:03;;;;;;;16.50;10.77;;;14.50;58.80;;;;;;5054238;28;20033;-65
2021/03/04 05:13:29;;;;;;;16.02;9.52;;;14.50;58.80;;;;;;5054159;28;20017;-64
2021/03/04 05:15:54;;;;;;;17.35;10.38;;;14.50;58.80;;;;;;5054637;28;20061;-65
2021/03/04 05:18:20;;;;;;;17.48;10.70;;;14.50;58.80;;;;;;5053938;28;20032;-65
2021/03/04 05:20:45;;;;;;;17.75;10.70;;;14.40;58.70;;;;;;5054161;28;20013;-65
2021/03/04 05:23:11;;;;;;;17.27;10.18;;;14.50;58.80;;;;;;5053849;28;20056;-65
2021/03/04 05:25:37;;;;;;;14.70;10.32;;;14.50;58.80;;;;;;5053794;28;20021;-65
2021/03/04 05:28:02;;;;;;;16.08;9.38;;;14.40;58.80;;;;;;5053680;28;20039;-64
2021/03/04 05:30:28;;;;;;;18.55;10.55;;;14.40;58.80;;;;;;5053531;28;20041;-64
2021/03/04 05:32:53;;;;;;;17.50;10.10;;;14.40;58.80;;;;;;5054027;28;20056;-65
2021/03/04 05:35:19;;;;;;;16.67;10.32;;;14.40;58.90;;;;;;5053624;28;20059;-64
2021/03/04 05:37:45;;;;;;;18.83;11.45;;;14.40;58.90;;;;;;5053990;28;20021;-64
2021/03/04 05:40:11;;;;;;;16.20;10.45;;;14.40;58.80;;;;;;5053213;28;20025;-65
2021/03/04 05:42:36;;;;;;;18.15;10.45;;;14.40;58.80;;;;;;5053655;28;20483;-64
2021/03/04 05:45:03;;;;;;;17.90;11.27;;;14.40;58.80;;;;;;5053539;28;20490;-66
2021/03/04 05:47:29;;;;;;;19.20;11.00;;;14.40;58.80;;;;;;5053233;28;20025;-66
2021/03/04 05:50:03;;;;;;;21.13;11.73;;;14.40;58.90;;;;;;5035349;28;20079;-66
2021/03/04 05:52:33;;;;;;;21.63;11.35;;;14.40;58.80;;;;;;5053344;28;20033;-66
2021/03/04 05:54:59;;;;;;;;;;;14.40;58.80;;;;;;5053580;28;20021;-63
2021/03/04 05:57:25;;;;;;;20.92;11.70;;;14.40;58.90;;;;;;5053234;28;19983;-66
2021/03/04 05:59:54;;;;;;;21.25;12.05;;;14.40;58.90;;;;;;5053031;28;20112;-66
2021/03/04 06:02:21;;;;;;;18.05;11.63;;;14.40;58.90;;;;;;5053384;28;20387;-66
2021/03/04 06:04:51;;;;;;;17.13;10.07;;;14.40;59.10;;;;;;5052973;28;20017;-66
2021/03/04 06:07:17;;;;;;;19.42;11.00;;;14.40;59.50;;;;;;5053026;28;20502;-66
2021/03/04 06:09:43;;;;;;;17.83;10.35;;;14.50;59.50;;;;;;5034897;28;20017;-64
2021/03/04 06:12:10;;;;;;;18.17;10.13;;;14.60;59.40;;;;;;5052838;28;20035;-63
2021/03/04 06:14:36;;;;;;;18.35;9.95;;;14.70;59.20;;;;;;5054135;28;20560;-66
2021/03/04 06:17:15;;;;;;;16.52;9.70;;;15.00;78.50;;;;;;5052775;28;20021;-66
2021/03/04 06:19:50;;;;;;;20.20;11.10;;;15.00;58.70;;;;;;5052598;28;20021;-65
2021/03/04 06:22:22;;;;;;;16.88;9.85;;;15.00;58.50;;;;;;5052914;28;20024;-65
2021/03/04 06:24:52;;;;;;;18.08;9.82;;;15.50;58.60;;;;;;5052684;28;20021;-65
2021/03/04 06:27:29;;;;;;;;;;;15.10;58.20;;;;;;5052968;28;20056;-65
2021/03/04 06:29:56;;;;;;;17.08;9.15;;;15.20;58.10;;;;;;5052553;28;20017;-66
2021/03/04 06:32:23;;;;;;;17.05;9.93;;;15.30;58.00;;;;;;5052753;28;20479;-66
2021/03/04 06:35:10;;;;;;;16.90;9.50;;;15.30;77.50;;;;;;5052453;28;20048;-65
2021/03/04 06:37:42;;;;;;;18.52;10.32;;;15.50;78.40;;;;;;5052339;28;20028;-65
2021/03/04 06:40:19;;;;;;;18.48;11.18;;;15.40;78.40;;;;;;5052598;28;20062;-65
2021/03/04 06:42:45;;;;;;;18.08;10.32;;;15.30;58.40;;;;;;5052257;28;20029;-66
2021/03/04 06:45:31;;;;;;;17.38;9.82;;;15.30;57.80;;;;;;5052169;28;20047;-63
2021/03/04 06:48:05;;;;;;;17.42;10.25;;;15.30;57.90;;;;;;5052440;28;20419;-64
2021/03/04 06:50:31;;;;;;;16.38;9.77;;;15.40;57.90;;;;;;5052120;28;20376;-64
2021/03/04 06:52:56;;;;;;;19.35;10.80;;;15.40;57.90;;;;;;5051320;28;20024;-64
2021/03/04 06:55:22;;;;;;;18.15;10.23;;;15.50;58.00;;;;;;5051694;28;20394;-64
2021/03/04 06:58:01;;;;;;;19.33;10.73;;;15.60;57.90;;;;;;5034340;28;20035;-65
2021/03/04 07:00:27;;;;;;;19.45;10.75;;;15.60;57.70;;;;;;5051903;28;20104;-65
2021/03/04 07:02:57;;;;;;;16.23;9.95;;;15.60;57.70;;;;;;5052088;28;20033;-66
2021/03/04 07:05:26;;;;;;;18.13;9.70;;;15.60;57.50;;;;;;5051971;28;20049;-66
2021/03/04 07:07:56;;;;;;;17.40;10.13;;;15.60;57.50;;;;;;5033971;28;20479;-66
2021/03/04 07:10:29;;;;;;;17.83;9.73;;;15.40;57.30;;;;;;5051852;28;20116;-65
2021/03/04 07:13:01;;;;;;;20.33;10.05;;;15.60;57.40;;;;;;5051820;28;20144;-66
2021/03/04 07:15:34;;;;;;;17.38;10.13;;;15.60;57.50;;;;;;5052639;28;20551;-65
2021/03/04 07:18:00;;;;;;;17.80;9.80;;;15.50;57.40;;;;;;5033748;28;20036;-66
2021/03/04 07:20:25;;;;;;;16.85;9.95;;;15.60;57.60;;;;;;5051713;28;20392;-65
2021/03/04 07:22:51;;;;;;;16.63;10.07;;;15.80;57.70;;;;;;5051670;28;20031;-65
2021/03/04 07:25:17;;;;;;;17.17;9.68;;;15.60;57.70;;;;;;5051872;28;20090;-65
2021/03/04 07:27:43;;;;;;;16.90;10.70;;;15.60;57.70;;;;;;5051742;28;20032;-65
2021/03/04 07:30:10;;;;;;;16.33;9.98;;;15.80;78.30;;;;;;5051503;28;20037;-65
2021/03/04 07:32:36;;;;;;;19.00;10.98;;;15.70;57.40;;;;;;5051657;28;20021;-65
2021/03/04 07:35:11;;;;;;;17.63;10.48;;;15.70;57.50;;;;;;5051892;28;20027;-63
2021/03/04 07:37:44;;;;;;;18.95;11.57;;;15.60;57.40;;;;;;5051622;28;20021;-63
2021/03/04 07:40:14;;;;;;;19.55;12.05;;;15.70;57.20;;;;;;5051818;28;20128;-63
2021/03/04 07:42:39;;;;;;;19.00;10.75;;;15.70;57.30;;;;;;5051652;28;20037;-64
2021/03/04 07:45:15;;;;;;;20.77;11.43;;;15.70;57.30;;;;;;5051393;28;20030;-63
2021/03/04 07:47:41;;;;;;;22.05;12.82;;;15.70;57.40;;;;;;5051869;28;20032;-63
2021/03/04 07:50:24;;;;;;;27.88;12.60;;;15.80;57.70;;;;;;5051706;28;20379;-62
2021/03/04 07:52:49;;;;;;;25.50;13.75;;;15.80;57.40;;;;;;5033436;28;20112;-63
2021/03/04 07:55:16;;;;;;;26.73;13.60;;;15.90;57.20;;;;;;5051251;28;20035;-62
2021/03/04 07:57:46;;;;;;;23.73;12.55;;;15.90;57.00;;;;;;5051391;28;20049;-62
2021/03/04 08:00:13;;;;;;;28.52;13.93;;;16.00;56.90;;;;;;5051672;28;20426;-62
2021/03/04 08:02:42;;;;;;;22.50;13.30;;;16.00;56.90;;;;;;5050252;28;20025;-64
2021/03/04 08:05:15;;;;;;;21.45;12.85;;;16.00;57.00;;;;;;5054999;28;20040;-62
2021/03/04 08:07:43;;;;;;;23.52;13.63;;;15.90;57.10;;;;;;5055397;28;20021;-64
2021/03/04 08:10:09;;;;;;;25.85;14.18;;;15.90;57.10;;;;;;5054985;28;20036;-64
2021/03/04 08:12:48;;;;;;;25.58;15.25;;;16.00;57.10;;;;;;5054904;28;20036;-64
2021/03/04 08:15:29;;;;;;;22.25;13.73;;;16.00;57.20;;;;;;5056077;28;20084;-65
2021/03/04 08:17:55;;;;;;;23.40;13.57;;;15.90;57.10;;;;;;5054986;28;20028;-65
2021/03/04 08:20:21;;;;;;;26.50;13.93;;;16.00;57.00;;;;;;5055053;28;20352;-66
2021/03/04 08:22:56;;;;;;;27.63;13.55;;;16.00;56.90;;;;;;5054838;28;20032;-65
2021/03/04 08:25:27;;;;;;;22.73;13.70;;;16.00;57.20;;;;;;5055295;28;20020;-65
2021/03/04 08:27:54;;;;;;;23.63;13.90;;;16.00;56.80;;;;;;5054938;28;20025;-63
2021/03/04 08:30:30;;;;;;;23.05;14.18;;;16.00;56.60;;;;;;5054824;28;20040;-65
2021/03/04 08:33:05;;;;;;;24.73;14.85;;;16.00;56.50;;;;;;5054868;28;20341;-64
2021/03/04 08:35:35;;;;;;;23.27;13.90;;;16.00;75.70;;;;;;5054811;28;20025;-65
2021/03/04 08:38:04;;;;;;;23.05;13.95;;;16.00;56.50;;;;;;5054692;28;20049;-64
2021/03/04 08:40:48;;;;;;;22.10;13.77;;;16.00;56.40;;;;;;5054651;28;20021;-64
2021/03/04 08:43:18;;;;;;;26.83;14.40;;;16.00;56.30;;;;;;5036519;28;20021;-63
2021/03/04 08:45:51;;;;;;;21.92;13.85;;;16.00;56.20;;;;;;5054471;28;20502;-64
2021/03/04 08:48:16;;;;;;;25.00;14.90;;;16.00;56.30;;;;;;5054463;28;20036;-64
2021/03/04 08:50:51;;;;;;;25.40;14.70;;;16.00;56.20;;;;;;5054162;28;20033;-64
2021/03/04 08:53:17;;;;;;;24.83;14.88;;;16.10;56.20;;;;;;5054286;28;20614;-64
2021/03/04 08:55:46;;;;;;;23.60;14.52;;;16.00;56.10;;;;;;5054300;28;20025;-64
2021/03/04 08:58:12;;;;;;;29.77;15.90;;;16.00;56.30;;;;;;5054141;28;20104;-64
2021/03/04 09:00:38;;;;;;;23.95;14.90;;;16.00;56.50;;;;;;5054286;28;20501;-65
2021/03/04 09:03:11;;;;;;;34.15;16.42;;;15.90;56.60;;;;;;5054051;28;20054;-64
2021/03/04 09:05:38;;;;;;;28.13;15.73;;;15.90;56.60;;;;;;5054111;28;20021;-64
2021/03/04 09:08:11;;;;;;;27.02;15.57;;;15.80;56.70;;;;;;5053592;28;20025;-64
2021/03/04 09:10:47;;;;;;;24.58;15.30;;;15.60;56.70;;;;;;5053891;28;20614;-64
2021/03/04 09:13:20;;;;;;;25.42;15.80;;;15.80;56.70;;;;;;5053461;28;20067;-64
2021/03/04 09:15:56;;;;;;;27.88;16.73;;;15.70;56.60;;;;;;5054228;28;20114;-64
2021/03/04 09:18:23;;;;;;;29.08;17.10;;;15.70;56.60;;;;;;5053812;28;20492;-64
2021/03/04 09:20:51;;;;;;;27.17;15.90;;;15.70;56.80;;;;;;5053728;28;20479;-64
2021/03/04 09:23:17;;;;;;;30.02;17.45;;;15.60;56.80;;;;;;5054046;28;20112;-64
2021/03/04 09:25:43;;;;;;;27.33;15.48;;;15.60;56.70;;;;;;5053672;28;20108;-64
2021/03/04 09:28:17;;;;;;;28.95;15.77;;;15.60;56.70;;;;;;5053631;28;20021;-64
2021/03/04 09:30:43;;;;;;;24.00;14.73;;;15.50;56.70;;;;;;5053622;28;20032;-64
2021/03/04 09:33:25;;;;;;;26.60;15.82;;;15.60;56.80;;;;;;5053787;28;20021;-65
2021/03/04 09:35:54;;;;;;;22.27;14.48;;;15.50;56.70;;;;;;5034139;28;20116;-65
2021/03/04 09:38:19;;;;;;;26.60;15.60;;;15.50;56.70;;;;;;5052418;28;20021;-64
2021/03/04 09:40:45;;;;;;;24.05;14.90;;;15.40;56.80;;;;;;5053410;28;20028;-65
2021/03/04 09:43:19;;;;;;;24.17;14.23;;;15.50;56.90;;;;;;5053498;28;20382;-65
2021/03/04 09:45:53;;;;;;;25.33;15.38;;;15.40;56.80;;;;;;5053613;28;20083;-65
2021/03/04 09:48:38;;;;;;;25.55;15.00;;;15.40;56.90;;;;;;5053507;28;20028;-65
2021/03/04 09:51:04;;;;;;;23.98;13.95;;;15.40;56.90;;;;;;5053451;28;20364;-65
2021/03/04 09:53:30;;;;;;;28.85;15.95;;;15.40;77.60;;;;;;5052953;28;20028;-64
2021/03/04 09:55:55;;;;;;;22.48;14.60;;;15.20;56.80;;;;;;5053464;28;20521;-64
2021/03/04 09:58:23;;;;;;;21.10;13.52;;;15.40;57.10;;;;;;5053402;28;20015;-64
2021/03/04 10:00:57;;;;;;;19.35;12.52;;;15.50;56.80;;;;;;5053270;28;20332;-64
2021/03/04 10:03:38;;;;;;;22.67;12.35;;;15.60;56.50;;;;;;5053052;28;20017;-64
2021/03/04 10:06:06;;;;;;;21.83;12.15;;;15.70;56.30;;;;;;5053220;28;20024;-64
2021/03/04 10:08:38;;;;;;;23.42;12.68;;;15.80;56.00;;;;;;5053385;28;20356;-64
2021/03/04 10:11:04;;;;;;;19.23;12.15;;;16.00;56.10;;;;;;5053114;28;20029;-64
2021/03/04 10:13:30;;;;;;;19.92;12.40;;;16.10;55.20;;;;;;5052832;28;20054;-65
2021/03/04 10:15:56;;;;;;;22.30;11.68;;;16.10;55.30;;;;;;5053808;28;20053;-64
2021/03/04 10:18:22;;;;;;;20.15;11.45;;;16.20;55.30;;;;;;5052665;28;20027;-64
2021/03/04 10:20:48;;;;;;;18.13;11.93;;;16.20;55.30;;;;;;5053142;28;20033;-64
2021/03/04 10:23:15;;;;;;;18.02;11.90;;;16.10;55.30;;;;;;5053012;28;20021;-64
2021/03/04 10:25:42;;;;;;;24.02;12.45;;;16.10;55.40;;;;;;5052734;28;20029;-65
2021/03/04 10:28:09;;;;;;;20.30;12.30;;;16.10;55.40;;;;;;5051419;28;20064;-65
2021/03/04 10:30:35;;;;;;;17.02;11.32;;;16.00;55.40;;;;;;5052292;28;20075;-65
2021/03/04 10:33:03;;;;;;;20.15;11.32;;;16.10;55.50;;;;;;5052259;28;20021;-65
2021/03/04 10:35:30;;;;;;;17.63;11.27;;;16.00;55.50;;;;;;5052283;28;20379;-65
2021/03/04 10:37:56;;;;;;;21.13;11.57;;;16.00;55.50;;;;;;5052356;28;20041;-65
2021/03/04 10:40:22;;;;;;;21.60;12.85;;;16.00;55.60;;;;;;5052415;28;20065;-65
2021/03/04 10:42:49;;;;;;;21.60;12.13;;;16.00;55.60;;;;;;5052286;28;20087;-65
2021/03/04 10:45:17;;;;;;;23.70;11.60;;;15.90;55.50;;;;;;5052595;28;20060;-65
2021/03/04 10:47:44;;;;;;;22.10;12.00;;;16.50;56.00;;;;;;5052207;28;20071;-64
2021/03/04 10:50:15;;;;;;;23.00;11.68;;;15.90;55.80;;;;;;5052223;28;20064;-64
2021/03/04 10:52:41;;;;;;;21.38;12.88;;;15.90;55.90;;;;;;5052522;28;20076;-64
2021/03/04 10:55:08;;;;;;;20.30;11.93;;;15.80;55.80;;;;;;5052452;28;20017;-64
2021/03/04 10:57:34;;;;;;;20.83;11.45;;;15.80;55.80;;;;;;5052523;28;20025;-64
2021/03/04 11:00:00;;;;;;;21.10;11.77;;;15.90;55.90;;;;;;5052168;28;20017;-64
2021/03/04 11:02:25;;;;;;;23.80;12.05;;;15.90;56.00;;;;;;5052493;28;20490;-64
2021/03/04 11:04:51;;;;;;;24.83;11.80;;;15.80;56.00;;;;;;5052358;28;20073;-64
2021/03/04 11:07:17;;;;;;;19.75;10.63;;;15.80;56.00;;;;;;5052071;28;20029;-64
2021/03/04 11:09:43;;;;;;;21.80;11.50;;;15.80;56.00;;;;;;5051728;28;20651;-65
2021/03/04 11:12:09;;;;;;;23.35;12.00;;;15.60;56.00;;;;;;5051879;28;20068;-65
2021/03/04 11:14:35;;;;;;;20.80;11.20;;;15.90;56.10;;;;;;5053518;28;20039;-64
2021/03/04 11:17:01;;;;;;;23.83;11.65;;;15.80;56.70;;;;;;5051678;28;20044;-65
2021/03/04 11:19:27;;;;;;;22.55;12.20;;;15.80;56.10;;;;;;5051941;28;20429;-66
2021/03/04 11:21:53;;;;;;;22.00;11.57;;;15.80;56.00;;;;;;5052095;28;20021;-64
2021/03/04 11:24:18;;;;;;;23.35;12.40;;;15.80;56.00;;;;;;5051811;28;20382;-65
2021/03/04 11:26:44;;;;;;;21.75;11.60;;;15.80;56.00;;;;;;5051763;28;20033;-65
2021/03/04 11:29:10;;;;;;;20.50;10.98;;;15.80;56.00;;;;;;5051845;28;20093;-64
2021/03/04 11:31:39;;;;;;;21.35;11.60;;;15.80;56.00;;;;;;5051995;28;20048;-65
2021/03/04 11:34:05;;;;;;;20.75;11.63;;;15.80;56.00;;;;;;5051978;28;20425;-64
2021/03/04 11:36:32;;;;;;;20.40;11.18;;;15.80;56.00;;;;;;5051832;28;20029;-64
2021/03/04 11:38:59;;;;;;;19.08;10.73;;;15.80;56.00;;;;;;5054053;28;20120;-64
2021/03/04 11:41:25;;;;;;;17.38;10.40;;;15.80;56.20;;;;;;5056053;28;20052;-65
2021/03/04 11:43:51;;;;;;;20.40;11.57;;;15.80;56.20;;;;;;5055748;28;20044;-65
2021/03/04 11:46:18;;;;;;;16.98;9.98;;;15.80;56.20;;;;;;5055744;28;20017;-65
2021/03/04 11:48:44;;;;;;;20.15;11.60;;;15.90;57.00;;;;;;5055634;28;20025;-64
2021/03/04 11:51:10;;;;;;;19.00;10.85;;;15.90;57.50;;;;;;5055575;28;20033;-64
2021/03/04 11:53:36;;;;;;;23.75;10.38;;;15.90;57.60;;;;;;5055603;28;20047;-64
2021/03/04 11:56:01;;;;;;;20.98;11.05;;;15.90;57.90;;;;;;5055541;28;20112;-65
2021/03/04 11:58:27;;;;;;;18.15;10.90;;;16.00;58.60;;;;;;5055492;28;20166;-65
2021/03/04 12:00:54;;;;;;;20.50;10.20;;;15.90;59.50;;;;;;5055412;28;20036;-64
2021/03/04 12:03:21;;;;;;;21.27;11.55;;;15.90;59.40;;;;;;5055283;28;20031;-63
2021/03/04 12:05:47;;;;;;;18.63;9.82;;;15.90;62.10;;;;;;5054991;28;20032;-63
2021/03/04 12:08:12;;;;;;;20.48;10.90;;;15.80;64.40;;;;;;5055137;28;20029;-63
2021/03/04 12:10:38;;;;;;;16.75;10.48;;;15.80;65.40;;;;;;5055235;28;20052;-63
2021/03/04 12:13:06;;;;;;;17.30;10.45;;;15.80;66.20;;;;;;5055047;28;20490;-63
2021/03/04 12:15:31;;;;;;;15.77;10.02;;;15.70;66.10;;;;;;5056665;28;20049;-64
2021/03/04 12:17:57;;;;;;;15.57;9.68;;;15.70;66.60;;;;;;5055012;28;20021;-63
2021/03/04 12:20:23;;;;;;;14.38;9.18;;;15.80;66.70;;;;;;5055273;28;20083;-63
2021/03/04 12:22:48;;;;;;;16.27;9.48;;;15.70;67.00;;;;;;5055321;28;20383;-63
2021/03/04 12:25:14;;;;;;;17.52;9.85;;;15.70;67.20;;;;;;5054992;28;20052;-63
2021/03/04 12:27:40;;;;;;;15.00;8.77;;;15.70;67.40;;;;;;5054846;28;20025;-63
2021/03/04 12:30:06;;;;;;;14.40;8.95;;;15.70;67.40;;;;;;5054817;28;20020;-63
2021/03/04 12:32:33;;;;;;;13.13;8.00;;;15.70;67.50;;;;;;5054885;28;20529;-62